Time;durP1;ratioP1;P1;durP2;ratioP2;P2;SDS_P1;SDS_P2;PMS_P1;PMS_P2;Temp;Humidity;BMP_temperature;BMP_pressure;BME280_temperature;BME280_humidity;BME280_pressure;Samples;Min_cycle;Max_cycle;Signal;HPM_P1;HPM_P2
2021/10/28 00:38:54;;;;;;;3.85;3.03;;;;;;;6.21;81.46;99642.59;4850134;29;20782;-75
2021/10/28 00:41:22;;;;;;;2.05;1.95;;;;;;;6.22;81.63;99636.47;4868915;29;20053;-75
2021/10/28 00:43:54;;;;;;;5.15;2.92;;;;;;;6.19;81.54;99630.56;4859809;29;20061;-73
2021/10/28 00:46:26;;;;;;;3.17;3.00;;;;;;;6.16;81.99;99625.50;4857924;29;20105;-74
2021/10/28 00:48:53;;;;;;;7.53;3.80;;;;;;;6.12;82.29;99617.03;4841295;29;20144;-76
2021/10/28 00:51:21;;;;;;;7.55;5.85;;;;;;;6.12;82.26;99614.44;4857853;29;20552;-76
2021/10/28 00:53:47;;;;;;;2.40;2.30;;;;;;;6.15;82.12;99614.31;4857786;29;20055;-76
2021/10/28 00:56:14;;;;;;;5.82;5.35;;;;;;;6.12;81.91;99600.63;4856985;29;20053;-76
2021/10/28 00:58:40;;;;;;;7.60;4.47;;;;;;;6.11;81.92;99605.00;4841087;29;20116;-76
2021/10/28 01:01:06;;;;;;;2.20;2.00;;;;;;;6.07;82.09;99595.66;4840202;29;20090;-76
2021/10/28 01:03:33;;;;;;;3.58;3.28;;;;;;;6.06;82.55;99598.28;4857126;29;20079;-75
2021/10/28 01:05:59;;;;;;;2.83;2.63;;;;;;;5.99;82.39;99587.31;4856852;29;20525;-74
2021/10/28 01:08:26;;;;;;;3.17;2.92;;;;;;;5.98;82.89;99588.25;4857146;29;20057;-74
2021/10/28 01:10:52;;;;;;;2.65;2.55;;;;;;;5.91;82.81;99584.22;4856759;29;20547;-75
2021/10/28 01:13:19;;;;;;;2.08;1.98;;;;;;;5.93;82.84;99587.59;4842684;29;20563;-75
2021/10/28 01:15:45;;;;;;;14.15;4.05;;;;;;;5.96;82.41;99564.13;4860347;29;20049;-77
2021/10/28 01:18:12;;;;;;;3.38;3.08;;;;;;;5.99;82.31;99564.00;4857496;29;20472;-78
2021/10/28 01:20:39;;;;;;;4.22;3.53;;;;;;;6.01;82.71;99570.00;4840971;29;20065;-77
2021/10/28 01:23:10;;;;;;;8.95;4.93;;;;;;;6.05;82.76;99568.94;4855920;29;20105;-78
2021/10/28 01:25:39;;;;;;;2.58;2.25;;;;;;;6.00;82.55;99557.09;4857326;29;20585;-77
2021/10/28 01:28:13;;;;;;;2.63;2.53;;;;;;;5.98;82.27;99544.22;4840233;29;20045;-76
2021/10/28 01:30:39;;;;;;;4.65;4.03;;;;;;;6.01;82.34;99548.41;4856984;29;20156;-75
2021/10/28 01:33:05;;;;;;;9.50;3.38;;;;;;;6.00;82.83;99538.94;4856754;29;20065;-75
2021/10/28 01:35:31;;;;;;;5.72;5.20;;;;;;;5.99;82.33;99537.28;4857048;29;20153;-75
2021/10/28 01:37:57;;;;;;;5.15;3.75;;;;;;;6.02;82.30;99543.16;4857538;29;20053;-76
2021/10/28 01:40:24;;;;;;;10.23;4.20;;;;;;;5.98;82.31;99530.41;4859534;29;20576;-75
2021/10/28 01:42:50;;;;;;;3.15;2.95;;;;;;;6.00;82.50;99529.44;4860765;29;20431;-74
2021/10/28 01:45:20;;;;;;;3.60;3.28;;;;;;;6.02;82.77;99519.84;4858994;29;20667;-75
2021/10/28 01:47:46;;;;;;;2.63;2.53;;;;;;;6.03;82.29;99521.53;4860465;29;20555;-76
2021/10/28 01:50:12;;;;;;;3.40;2.42;;;;;;;6.00;82.51;99519.06;4859019;29;20057;-76
2021/10/28 01:52:39;;;;;;;7.78;3.55;;;;;;;5.98;82.68;99518.31;4860453;29;20049;-74
2021/10/28 01:55:10;;;;;;;4.15;3.83;;;;;;;6.00;82.70;99511.31;4860049;29;20049;-75
2021/10/28 01:57:37;;;;;;;5.05;4.55;;;;;;;6.04;82.76;99512.88;4859195;29;20053;-74
2021/10/28 02:00:17;;;;;;;4.15;2.85;;;;;;;6.05;82.90;99509.34;4858826;29;20057;-75
2021/10/28 02:02:45;;;;;;;2.37;2.20;;;;;;;6.07;82.27;99481.63;4860698;29;20078;-77
2021/10/28 02:05:18;;;;;;;5.13;4.07;;;;;;;6.09;82.30;99494.50;4859875;29;20299;-77
2021/10/28 02:07:44;;;;;;;7.10;6.43;;;;;;;6.06;82.74;99489.47;4844201;29;20049;-76
2021/10/28 02:10:11;;;;;;;4.40;3.10;;;;;;;6.11;82.15;99493.56;4858547;29;20087;-77
2021/10/28 02:12:38;;;;;;;6.72;3.63;;;;;;;6.09;82.47;99485.00;4843562;29;20562;-76
2021/10/28 02:15:06;;;;;;;3.75;3.45;;;;;;;6.04;82.74;99483.53;4858617;29;20207;-77
2021/10/28 02:17:36;;;;;;;2.85;2.65;;;;;;;6.06;82.48;99471.31;4859042;29;20049;-76
2021/10/28 02:20:04;;;;;;;6.80;3.97;;;;;;;6.05;82.75;99475.66;4858682;29;20050;-77
2021/10/28 02:22:30;;;;;;;3.33;3.13;;;;;;;6.09;82.66;99468.59;4858819;29;20068;-76
2021/10/28 02:24:57;;;;;;;5.82;2.47;;;;;;;6.06;82.97;99472.19;4859784;29;20056;-76
2021/10/28 02:27:23;;;;;;;5.88;3.40;;;;;;;6.07;82.93;99476.47;4859662;29;20109;-76
2021/10/28 02:29:49;;;;;;;3.55;3.28;;;;;;;6.04;83.10;99474.00;4858753;29;20059;-76
2021/10/28 02:32:15;;;;;;;6.88;6.22;;;;;;;6.06;83.03;99463.56;4859837;29;20061;-75
2021/10/28 02:34:42;;;;;;;3.72;3.42;;;;;;;6.04;82.76;99450.69;4843363;29;20472;-76
2021/10/28 02:37:08;;;;;;;3.28;3.08;;;;;;;6.06;82.92;99453.19;4858206;29;20052;-74
2021/10/28 02:39:36;;;;;;;6.32;4.30;;;;;;;6.05;83.11;99448.94;4858163;29;20054;-75
2021/10/28 02:42:03;;;;;;;4.38;3.97;;;;;;;6.03;82.82;99441.22;4859293;29;20633;-74
2021/10/28 02:44:29;;;;;;;2.55;2.45;;;;;;;6.03;82.57;99433.44;4859418;29;20567;-75
2021/10/28 02:46:55;;;;;;;3.90;3.70;;;;;;;6.04;83.35;99429.97;4858247;29;20148;-74
2021/10/28 02:49:21;;;;;;;3.88;3.55;;;;;;;6.05;83.10;99430.81;4859044;29;20397;-75
2021/10/28 02:51:47;;;;;;;3.58;3.38;;;;;;;6.02;83.20;99429.16;4857351;29;20060;-74
2021/10/28 02:54:21;;;;;;;7.55;4.97;;;;;;;5.99;83.44;99426.69;4858945;29;20112;-75
2021/10/28 02:56:47;;;;;;;2.28;2.15;;;;;;;5.99;83.43;99416.34;4857941;29;20049;-75
2021/10/28 02:59:13;;;;;;;3.78;3.47;;;;;;;5.95;83.78;99408.78;4857633;29;20397;-76
2021/10/28 03:01:46;;;;;;;3.30;2.40;;;;;;;5.98;83.91;99403.47;4857849;29;20145;-74
2021/10/28 03:04:12;;;;;;;4.82;3.53;;;;;;;5.97;83.58;99405.22;4857532;29;20058;-75
2021/10/28 03:06:40;;;;;;;5.47;4.80;;;;;;;5.97;83.69;99402.63;4857811;29;20050;-75
2021/10/28 03:09:27;;;;;;;7.35;6.22;;;;;;;5.97;83.76;99387.09;4857357;29;20061;-75
2021/10/28 03:11:58;;;;;;;6.85;5.18;;;;;;;5.97;83.58;99371.53;4873068;29;20050;-76
2021/10/28 03:14:33;;;;;;;10.85;3.95;;;;;;;5.96;84.08;99377.63;4857555;29;20053;-75
2021/10/28 03:27:36;;;;;;;2.67;2.58;;;;;;;5.99;84.37;99348.97;4857871;29;20061;-75
2021/10/28 03:30:03;;;;;;;4.45;4.07;;;;;;;5.95;83.83;99349.22;4858380;29;20054;-76
2021/10/28 03:32:29;;;;;;;3.30;3.15;;;;;;;5.97;84.11;99340.44;4858582;29;20168;-75
2021/10/28 03:34:55;;;;;;;10.40;3.72;;;;;;;5.97;83.95;99331.84;4856677;29;20555;-77
2021/10/28 03:37:26;;;;;;;3.10;2.90;;;;;;;5.97;84.22;99350.81;4858121;29;20057;-77
2021/10/28 03:40:08;;;;;;;7.35;6.50;;;;;;;5.97;84.58;99356.00;4843766;29;20428;-77
2021/10/28 04:30:21;;;;;;;4.43;3.35;;;;;;;5.73;88.92;99320.78;4850840;29;20058;-78
2021/10/28 04:32:48;;;;;;;3.33;3.13;;;;;;;5.69;88.98;99295.94;4849114;29;20058;-76
2021/10/28 04:35:14;;;;;;;5.22;4.82;;;;;;;5.77;88.37;99306.78;4842117;29;20054;-76
2021/10/28 04:37:40;;;;;;;2.05;2.03;;;;;;;5.81;88.35;99302.31;4838533;29;20149;-75
2021/10/28 04:40:07;;;;;;;9.98;6.10;;;;;;;5.83;88.53;99293.56;4838954;29;20057;-75
2021/10/28 04:42:33;;;;;;;2.40;2.28;;;;;;;5.80;89.14;99311.81;4838054;29;20138;-76
2021/10/28 04:44:59;;;;;;;4.05;3.72;;;;;;;5.80;89.52;99317.00;4839153;29;20050;-76
2021/10/28 04:47:25;;;;;;;8.75;4.00;;;;;;;5.80;89.66;99298.88;4838951;29;20148;-76
2021/10/28 04:49:51;;;;;;;6.05;5.10;;;;;;;5.77;89.47;99293.84;4839064;29;20050;-76
2021/10/28 04:52:20;;;;;;;3.90;3.70;;;;;;;5.77;89.79;99301.59;4838552;29;20068;-76
2021/10/28 04:54:46;;;;;;;4.00;3.05;;;;;;;5.75;90.08;99295.66;4839141;29;20049;-75
2021/10/28 04:57:12;;;;;;;1.80;1.77;;;;;;;5.78;90.59;99290.34;4842357;29;20053;-77
2021/10/28 04:59:38;;;;;;;7.88;5.05;;;;;;;5.79;90.58;99299.81;4857477;29;20057;-77
2021/10/28 05:02:04;;;;;;;2.75;2.65;;;;;;;5.75;90.71;99277.53;4857336;29;20068;-76
2021/10/28 05:04:31;;;;;;;2.92;2.83;;;;;;;5.79;91.13;99289.44;4856100;29;20481;-77
2021/10/28 05:06:57;;;;;;;2.72;2.60;;;;;;;5.82;91.39;99294.50;4856275;29;20042;-78
2021/10/28 05:09:26;;;;;;;3.33;3.13;;;;;;;5.80;90.85;99285.94;4858176;29;20056;-77
2021/10/28 05:11:52;;;;;;;3.70;3.35;;;;;;;5.84;91.15;99287.47;4858671;29;20444;-76
2021/10/28 05:14:18;;;;;;;4.25;3.88;;;;;;;5.86;91.36;99288.28;4872859;29;20060;-77
2021/10/28 05:16:44;;;;;;;3.17;3.08;;;;;;;5.86;91.40;99285.69;4861099;29;20061;-76
2021/10/28 05:19:10;;;;;;;5.35;4.85;;;;;;;5.90;90.98;99292.41;4859813;29;20085;-76
2021/10/28 05:21:36;;;;;;;5.75;5.25;;;;;;;5.95;91.70;99289.63;4861003;29;20057;-75
2021/10/28 05:24:02;;;;;;;2.75;2.60;;;;;;;5.97;91.49;99292.97;4859545;29;20121;-80
2021/10/28 05:26:29;;;;;;;1.85;1.75;;;;;;;5.95;91.18;99289.63;4859662;29;20625;-78
2021/10/28 05:28:54;;;;;;;2.78;2.67;;;;;;;5.98;91.38;99294.66;4844192;29;20598;-80
2021/10/28 05:31:22;;;;;;;2.10;2.00;;;;;;;5.96;91.12;99292.13;4860506;29;20057;-80
2021/10/28 05:33:48;;;;;;;8.85;8.05;;;;;;;6.07;90.92;99284.72;4860269;29;20053;-77
2021/10/28 05:36:14;;;;;;;2.85;2.75;;;;;;;6.06;91.18;99289.97;4859561;29;20058;-77
2021/10/28 05:38:40;;;;;;;4.07;3.78;;;;;;;6.09;91.39;99293.25;4843803;29;20173;-78
2021/10/28 05:41:10;;;;;;;21.67;2.13;;;;;;;6.09;91.57;99303.63;4858308;29;20130;-77
2021/10/28 05:43:36;;;;;;;3.95;3.65;;;;;;;6.11;91.57;99296.63;4820474;29;20432;-78
2021/10/28 05:46:02;;;;;;;4.57;3.47;;;;;;;6.17;91.04;99298.94;4847212;29;20046;-75
2021/10/28 05:48:29;;;;;;;2.33;2.20;;;;;;;6.21;91.51;99308.25;4856820;29;20060;-76
2021/10/28 05:50:55;;;;;;;3.83;3.58;;;;;;;6.22;91.24;99299.56;4859190;29;20088;-78
2021/10/28 05:53:21;;;;;;;1.35;1.35;;;;;;;6.27;91.55;99294.19;4842420;29;20081;-76
2021/10/28 05:55:48;;;;;;;2.08;1.98;;;;;;;6.24;91.35;99283.94;4856867;29;20050;-77
2021/10/28 05:58:15;;;;;;;2.05;2.05;;;;;;;6.32;91.33;99288.75;4855993;29;20711;-76
2021/10/28 06:00:41;;;;;;;2.95;2.08;;;;;;;6.34;91.54;99281.78;4858479;29;20045;-76
2021/10/28 06:03:07;;;;;;;3.17;3.03;;;;;;;6.38;91.05;99285.91;4857154;29;20132;-74
2021/10/28 06:05:33;;;;;;;2.60;2.50;;;;;;;6.38;91.15;99291.09;4856740;29;20057;-75
2021/10/28 06:08:00;;;;;;;2.45;2.35;;;;;;;6.42;91.46;99295.19;4859460;29;20045;-76
2021/10/28 06:10:26;;;;;;;1.92;1.85;;;;;;;6.42;91.14;99285.66;4857476;29;20486;-76
2021/10/28 06:12:57;;;;;;;2.47;2.38;;;;;;;6.44;91.26;99289.06;4857142;29;20065;-76
2021/10/28 06:15:23;;;;;;;2.58;2.47;;;;;;;6.46;91.55;99283.78;4855103;29;20524;-77
2021/10/28 06:17:52;;;;;;;2.42;2.33;;;;;;;6.50;91.48;99277.53;4852936;29;20069;-79
2021/10/28 06:20:19;;;;;;;2.10;2.00;;;;;;;6.59;90.68;99283.13;4841552;29;20050;-75
2021/10/28 06:22:45;;;;;;;2.10;2.00;;;;;;;6.60;90.66;99271.84;4858120;29;20057;-79
2021/10/28 06:25:12;;;;;;;1.17;1.17;;;;;;;6.71;90.47;99281.69;4856260;29;20551;-79
2021/10/28 06:27:38;;;;;;;1.60;1.60;;;;;;;6.73;90.05;99282.47;4860307;29;20109;-79
2021/10/28 06:30:04;;;;;;;2.15;2.05;;;;;;;6.76;90.02;99277.13;4842015;29;20057;-79
2021/10/28 06:32:31;;;;;;;2.60;1.80;;;;;;;6.75;90.11;99270.25;4844807;29;20092;-79
2021/10/28 06:35:00;;;;;;;3.75;3.45;;;;;;;6.78;90.40;99283.91;4857738;29;20056;-80
2021/10/28 06:37:27;;;;;;;0.88;0.88;;;;;;;6.81;90.67;99277.72;4860528;29;20153;-77
2021/10/28 06:39:53;;;;;;;4.63;3.00;;;;;;;6.85;91.47;99289.66;4827145;29;20056;-78
2021/10/28 06:42:19;;;;;;;14.80;2.33;;;;;;;6.88;91.10;99284.31;4832960;29;20061;-78
2021/10/28 06:44:45;;;;;;;2.75;1.83;;;;;;;6.92;90.84;99292.78;4854426;29;20046;-79
2021/10/28 06:47:14;;;;;;;1.95;1.80;;;;;;;6.90;90.30;99290.28;4856631;29;20082;-81
2021/10/28 06:49:41;;;;;;;1.50;1.50;;;;;;;6.93;90.54;99303.09;4856126;29;20041;-80
2021/10/28 06:52:11;;;;;;;2.85;2.55;;;;;;;6.96;91.04;99295.16;4857140;29;20053;-78
2021/10/28 06:54:41;;;;;;;1.88;1.77;;;;;;;6.95;91.02;99293.47;4858215;29;20049;-81
2021/10/28 07:02:37;;;;;;;1.95;1.85;;;;;;;6.99;91.18;99296.75;4860943;29;20106;-80
2021/10/28 07:05:04;;;;;;;3.13;2.10;;;;;;;7.00;91.08;99304.44;4850114;29;20050;-79
2021/10/28 07:07:32;;;;;;;2.50;2.40;;;;;;;7.04;91.19;99303.38;4856694;29;20045;-80
2021/10/28 07:10:11;;;;;;;2.67;2.55;;;;;;;7.04;90.93;99295.59;4826368;29;20547;-80
2021/10/28 07:12:58;;;;;;;2.78;2.58;;;;;;;7.13;90.46;99297.75;4838943;29;20096;-78
2021/10/28 07:15:35;;;;;;;1.08;1.08;;;;;;;7.20;90.21;99301.72;4854274;29;20054;-81
2021/10/28 07:18:37;;;;;;;2.55;2.45;;;;;;;7.27;90.17;99302.25;4811414;29;20109;-83
2021/10/28 07:30:06;;;;;;;2.33;2.22;;;;;;;7.50;89.40;99306.28;4855613;29;20058;-75
2021/10/28 08:06:25;;;;;;;1.02;1.00;;;;;;;8.04;88.58;99311.22;4855841;29;20074;-75
2021/10/28 08:14:43;;;;;;;1.15;1.15;;;;;;;8.12;89.19;99324.63;4845778;29;20054;-80
2021/10/28 08:17:39;;;;;;;0.85;0.85;;;;;;;8.12;89.29;99314.22;4846439;29;20109;-78
2021/10/28 08:20:14;;;;;;;0.85;0.85;;;;;;;8.20;89.07;99327.66;4842121;29;20056;-78
2021/10/28 08:22:44;;;;;;;1.08;1.08;;;;;;;8.23;88.97;99324.91;4839690;29;20049;-78
2021/10/28 08:30:40;;;;;;;1.58;1.48;;;;;;;8.43;88.53;99328.22;4862023;29;20084;-78
2021/10/28 08:33:06;;;;;;;1.40;1.30;;;;;;;8.40;87.89;99331.81;4854749;29;20050;-78
2021/10/28 08:35:34;;;;;;;1.10;1.10;;;;;;;8.50;87.91;99334.75;4856863;29;20042;-78
2021/10/28 08:38:01;;;;;;;1.27;1.27;;;;;;;8.54;88.42;99339.69;4855763;29;20129;-77
2021/10/28 08:40:27;;;;;;;1.65;1.58;;;;;;;8.51;87.98;99342.47;4856182;29;20086;-77
2021/10/28 08:42:54;;;;;;;2.00;1.90;;;;;;;8.50;88.25;99345.16;4855662;29;20049;-78
2021/10/28 08:45:21;;;;;;;2.47;1.27;;;;;;;8.49;88.84;99338.28;4855976;29;20049;-79
2021/10/28 08:47:54;;;;;;;1.23;1.23;;;;;;;8.58;88.26;99348.16;4855085;29;20124;-76
2021/10/28 08:50:48;;;;;;;1.63;1.52;;;;;;;8.69;87.98;99343.22;4854429;29;20508;-75
2021/10/28 08:55:57;;;;;;;1.42;1.42;;;;;;;8.90;87.37;99348.06;4855415;29;20053;-76
2021/10/28 09:24:23;;;;;;;4.47;1.98;;;;;;;9.84;84.08;99344.31;4860560;29;20107;-78
2021/10/28 09:32:29;;;;;;;0.68;0.68;;;;;;;10.25;82.08;99350.50;4854877;29;20460;-78
2021/10/28 09:44:13;;;;;;;4.90;3.10;;;;;;;10.30;82.32;99358.91;4836822;29;20096;-77
2021/10/28 09:46:52;;;;;;;1.00;1.00;;;;;;;10.20;82.43;99372.59;4837095;29;20137;-77
2021/10/28 09:51:53;;;;;;;1.08;1.00;;;;;;;10.31;82.02;99363.16;4837958;29;20114;-78
2021/10/28 10:00:05;;;;;;;0.60;0.60;;;;;;;10.47;81.69;99370.06;4825796;29;20141;-80
2021/10/28 10:02:41;;;;;;;0.88;0.88;;;;;;;10.45;81.13;99377.97;4841691;29;20046;-81
2021/10/28 10:05:17;;;;;;;1.00;1.00;;;;;;;10.52;80.99;99381.03;4841122;29;20149;-80
2021/10/28 10:07:44;;;;;;;0.55;0.55;;;;;;;10.45;81.00;99377.97;4841238;29;20058;-82
2021/10/28 10:10:10;;;;;;;0.70;0.70;;;;;;;10.49;80.09;99382.06;4839842;29;20517;-81
2021/10/28 10:12:37;;;;;;;0.65;0.65;;;;;;;10.53;80.46;99390.56;4844957;29;20090;-79
2021/10/28 10:15:04;;;;;;;1.90;1.73;;;;;;;10.47;80.62;99391.75;4859016;29;20108;-79
2021/10/28 10:17:30;;;;;;;0.93;0.93;;;;;;;10.44;81.21;99382.34;4856611;29;20045;-78
2021/10/28 10:19:57;;;;;;;0.95;0.95;;;;;;;10.40;81.77;99387.88;4849036;29;20057;-78
2021/10/28 11:23:24;;;;;;;0.40;0.40;;;;;;;11.41;76.82;99462.34;4759248;30;20071;-79
2021/10/28 11:58:58;;;;;;;2.67;0.60;;;;;;;11.19;75.98;99464.63;4839903;29;20092;-78
2021/10/28 12:54:54;;;;;;;2.25;1.33;;;;;;;10.74;72.53;99645.06;4856077;29;20558;-78
2021/10/28 13:52:06;;;;;;;2.35;0.95;;;;;;;10.36;73.13;99760.34;4859411;29;20061;-76
2021/10/28 13:57:27;;;;;;;3.78;1.20;;;;;;;10.33;73.73;99772.72;4827658;29;20057;-76
2021/10/28 14:30:59;;;;;;;1.02;1.02;;;;;;;9.40;81.34;99878.41;4858487;29;20513;-77
2021/10/28 14:33:40;;;;;;;0.70;0.70;;;;;;;9.38;81.51;99894.13;4859196;29;20485;-77
2021/10/28 15:28:11;;;;;;;3.22;1.13;;;;;;;8.93;81.23;100026.53;4858319;29;20144;-78
2021/10/28 15:36:08;;;;;;;0.70;0.70;;;;;;;8.95;81.94;100055.94;4858669;29;20065;-76
2021/10/28 15:39:04;;;;;;;1.27;1.27;;;;;;;8.91;83.07;100056.97;4858371;29;20053;-76
2021/10/28 15:55:12;;;;;;;1.23;1.23;;;;;;;8.47;79.90;100078.91;4856119;29;20054;-77
2021/10/28 15:57:51;;;;;;;0.98;0.98;;;;;;;8.55;78.67;100087.22;4862678;29;20049;-76
2021/10/28 16:00:36;;;;;;;1.02;1.02;;;;;;;8.43;78.99;100098.16;4858844;29;20053;-78
2021/10/28 16:22:28;;;;;;;0.52;0.52;;;;;;;8.56;78.63;100172.19;4855528;29;20167;-79
2021/10/28 16:24:54;;;;;;;1.60;1.50;;;;;;;8.54;77.93;100161.81;4840886;29;20041;-78
2021/10/28 16:27:21;;;;;;;1.63;1.33;;;;;;;8.52;77.08;100166.25;4840530;29;20080;-78
2021/10/28 16:29:47;;;;;;;0.80;0.80;;;;;;;8.45;77.38;100177.81;4855891;29;20054;-77
2021/10/28 16:32:14;;;;;;;0.80;0.80;;;;;;;8.46;77.64;100181.28;4855333;29;20520;-78
2021/10/28 16:34:41;;;;;;;0.90;0.90;;;;;;;8.42;77.40;100195.31;4853764;29;20053;-77
2021/10/28 16:37:07;;;;;;;1.20;1.20;;;;;;;8.32;78.34;100195.69;4856798;29;20469;-77
2021/10/28 16:39:33;;;;;;;0.93;0.93;;;;;;;8.29;77.36;100211.41;4856964;29;20057;-83
2021/10/28 16:41:59;;;;;;;0.88;0.88;;;;;;;8.21;76.44;100213.44;4856567;29;20484;-81
2021/10/28 16:44:26;;;;;;;0.82;0.82;;;;;;;8.20;75.29;100201.34;4855489;29;20050;-75
2021/10/28 16:46:53;;;;;;;3.42;1.67;;;;;;;8.13;75.95;100236.31;4854280;29;20050;-75
2021/10/28 16:49:20;;;;;;;0.88;0.88;;;;;;;8.05;75.87;100243.53;4854761;29;20046;-75
2021/10/28 16:51:46;;;;;;;0.93;0.93;;;;;;;8.02;75.58;100242.81;4855733;29;20130;-76
2021/10/28 16:54:16;;;;;;;4.55;4.15;;;;;;;7.96;75.57;100261.25;4854176;29;20057;-76
2021/10/28 16:56:42;;;;;;;1.10;1.10;;;;;;;7.96;75.08;100261.25;4854838;29;20528;-75
2021/10/28 16:59:08;;;;;;;1.00;1.00;;;;;;;7.94;74.94;100266.50;4854714;29;20167;-78
2021/10/28 17:01:34;;;;;;;1.25;1.10;;;;;;;7.83;75.46;100272.09;4851767;29;20140;-76
2021/10/28 17:04:02;;;;;;;0.95;0.95;;;;;;;7.88;75.77;100280.56;4839472;29;20527;-78
2021/10/28 17:06:28;;;;;;;2.67;0.70;;;;;;;7.87;75.58;100298.84;4858920;29;20041;-77
2021/10/28 17:08:56;;;;;;;1.30;1.25;;;;;;;7.82;75.55;100285.13;4846985;29;20078;-79
2021/10/28 17:11:26;;;;;;;8.38;1.30;;;;;;;7.83;75.73;100305.88;4860241;29;20037;-78
2021/10/28 17:13:53;;;;;;;3.13;0.98;;;;;;;7.80;75.94;100285.22;4858705;29;20512;-78
2021/10/28 17:16:20;;;;;;;0.65;0.65;;;;;;;7.76;75.96;100309.63;4858461;29;20077;-77
2021/10/28 17:18:46;;;;;;;1.45;1.35;;;;;;;7.77;76.01;100300.94;4859950;29;20049;-75
2021/10/28 17:21:12;;;;;;;0.95;0.73;;;;;;;7.76;75.79;100324.34;4861985;29;20081;-77
2021/10/28 17:23:41;;;;;;;1.10;1.10;;;;;;;7.74;75.37;100332.22;4861570;29;20060;-78
2021/10/28 17:26:10;;;;;;;0.60;0.60;;;;;;;7.65;76.04;100336.91;4860945;29;20131;-75
2021/10/28 17:28:36;;;;;;;1.20;1.20;;;;;;;7.63;75.24;100349.94;4863009;29;20395;-77
2021/10/28 17:31:03;;;;;;;5.72;2.35;;;;;;;7.61;74.93;100330.09;4862508;29;20060;-75
2021/10/28 17:33:29;;;;;;;1.23;1.23;;;;;;;7.55;73.70;100344.16;4861973;29;20061;-77
2021/10/28 17:35:56;;;;;;;0.80;0.80;;;;;;;7.54;74.49;100339.00;4860986;29;20567;-77
2021/10/28 17:38:23;;;;;;;0.77;0.77;;;;;;;7.51;72.87;100323.53;4845310;29;20052;-75
2021/10/28 17:40:49;;;;;;;1.02;0.95;;;;;;;7.49;70.78;100335.75;4830070;29;20589;-75
2021/10/28 17:43:16;;;;;;;1.92;1.80;;;;;;;7.48;70.59;100349.63;4862429;29;20072;-76
2021/10/28 17:45:42;;;;;;;1.05;1.05;;;;;;;7.46;70.61;100335.84;4862407;29;20054;-75
2021/10/28 17:48:09;;;;;;;1.63;1.52;;;;;;;7.42;70.61;100327.31;4861335;29;20050;-75
2021/10/28 17:50:36;;;;;;;0.80;0.80;;;;;;;7.44;70.12;100332.44;4841612;29;20049;-76
2021/10/28 17:53:03;;;;;;;5.65;0.82;;;;;;;7.38;70.51;100332.66;4869850;29;20543;-76
2021/10/28 17:55:29;;;;;;;0.93;0.93;;;;;;;7.42;68.49;100334.25;4847265;29;20867;-75
2021/10/28 17:57:55;;;;;;;0.98;0.98;;;;;;;7.43;69.07;100352.34;4858300;29;20149;-75
2021/10/28 18:00:21;;;;;;;1.20;1.17;;;;;;;7.42;69.14;100349.84;4828040;29;20060;-77
2021/10/28 18:02:49;;;;;;;5.88;1.10;;;;;;;7.41;69.10;100361.97;4857925;29;20057;-77
2021/10/28 18:05:15;;;;;;;0.88;0.88;;;;;;;7.41;69.21;100368.91;4844234;29;20074;-76
2021/10/28 18:07:42;;;;;;;0.70;0.70;;;;;;;7.38;69.36;100369.84;4858396;29;20163;-77
2021/10/28 18:10:09;;;;;;;0.77;0.77;;;;;;;7.33;70.15;100370.00;4831161;29;20616;-76
2021/10/28 18:12:35;;;;;;;0.90;0.90;;;;;;;7.34;69.86;100358.72;4860991;29;20710;-79
2021/10/28 18:15:03;;;;;;;1.40;1.27;;;;;;;7.32;69.89;100368.31;4842483;29;20057;-75
2021/10/28 18:17:29;;;;;;;0.80;0.80;;;;;;;7.26;70.20;100384.09;4843124;29;20424;-75
2021/10/28 18:19:56;;;;;;;0.80;0.80;;;;;;;7.30;69.83;100393.47;4827888;29;20373;-76
2021/10/28 18:22:22;;;;;;;2.65;1.30;;;;;;;7.34;69.95;100399.41;4842281;29;20137;-76
2021/10/28 18:24:49;;;;;;;1.30;0.90;;;;;;;7.33;69.29;100403.75;4840811;29;20057;-76
2021/10/28 18:27:15;;;;;;;1.23;1.13;;;;;;;7.33;70.08;100414.16;4851131;29;20063;-77
2021/10/28 18:29:42;;;;;;;0.73;0.73;;;;;;;7.33;69.49;100424.53;4849153;29;20045;-76
2021/10/28 18:32:08;;;;;;;2.53;1.80;;;;;;;7.35;68.73;100411.53;4860750;29;20405;-76
2021/10/28 18:34:35;;;;;;;0.77;0.77;;;;;;;7.40;68.52;100430.38;4859266;29;20181;-76
2021/10/28 18:37:01;;;;;;;0.90;0.90;;;;;;;7.32;69.21;100433.25;4828438;29;20064;-75
2021/10/28 18:39:28;;;;;;;0.90;0.90;;;;;;;7.33;69.47;100450.50;4858261;29;20052;-77
2021/10/28 18:42:46;;;;;;;1.00;1.00;;;;;;;7.36;69.28;100454.78;4852398;29;20074;-78
2021/10/28 18:45:45;;;;;;;1.15;1.15;;;;;;;7.35;69.42;100458.28;4834924;29;20063;-75
2021/10/28 18:48:14;;;;;;;1.15;1.15;;;;;;;7.32;68.91;100473.94;4858945;29;20049;-76
2021/10/28 18:50:40;;;;;;;0.63;0.63;;;;;;;7.38;69.12;100473.75;4849476;29;20053;-77
2021/10/28 18:53:07;;;;;;;1.83;1.73;;;;;;;7.35;68.93;100476.44;4849320;29;20058;-77
2021/10/28 18:55:33;;;;;;;1.00;1.00;;;;;;;7.39;68.98;100490.19;4857881;29;20513;-75
2021/10/28 18:58:00;;;;;;;0.90;0.90;;;;;;;7.34;69.67;100496.38;4852061;29;20045;-77
2021/10/28 19:00:26;;;;;;;0.85;0.85;;;;;;;7.38;69.20;100498.88;4850388;29;20172;-78
2021/10/28 19:02:58;;;;;;;1.33;1.33;;;;;;;7.40;69.14;100510.03;4855285;29;20428;-77
2021/10/28 19:05:26;;;;;;;1.33;1.33;;;;;;;7.36;69.75;100513.66;4856505;29;20121;-76
2021/10/28 19:07:55;;;;;;;0.88;0.88;;;;;;;7.36;68.76;100516.25;4833480;29;20059;-77
2021/10/28 19:10:24;;;;;;;1.13;1.13;;;;;;;7.42;69.12;100516.06;4848252;29;20072;-76
2021/10/28 19:12:50;;;;;;;0.90;0.90;;;;;;;7.44;69.03;100522.06;4852522;29;20068;-76
2021/10/28 19:15:17;;;;;;;0.77;0.77;;;;;;;7.42;69.11;100510.88;4857508;29;20053;-76
2021/10/28 19:17:46;;;;;;;1.02;1.02;;;;;;;7.39;69.47;100521.34;4856670;29;20053;-78
2021/10/28 19:20:14;;;;;;;1.42;1.42;;;;;;;7.41;69.36;100524.75;4858045;29;20476;-77
2021/10/28 19:22:40;;;;;;;1.35;1.33;;;;;;;7.43;68.87;100522.97;4842023;29;20125;-76
2021/10/28 19:25:10;;;;;;;0.98;0.98;;;;;;;7.40;68.83;100517.84;4842321;29;20081;-74
2021/10/28 19:27:36;;;;;;;1.10;1.10;;;;;;;7.44;68.40;100524.66;4858207;29;20056;-77
2021/10/28 19:30:24;;;;;;;2.38;1.90;;;;;;;7.41;68.27;100519.56;4857399;29;20095;-76
2021/10/28 19:32:51;;;;;;;2.00;1.85;;;;;;;7.46;68.41;100538.47;4857054;29;20057;-77
2021/10/28 19:35:21;;;;;;;0.95;0.95;;;;;;;7.48;68.70;100532.31;4859734;29;20513;-75
2021/10/28 19:40:40;;;;;;;14.70;7.90;;;;;;;7.48;68.32;100528.84;4858744;29;20061;-75
2021/10/28 19:48:39;;;;;;;0.97;0.97;;;;;;;7.51;66.63;100541.75;4854858;29;20121;-76
2021/10/28 19:51:06;;;;;;;0.47;0.47;;;;;;;7.52;66.44;100546.06;4844785;29;20318;-74
2021/10/28 19:53:33;;;;;;;3.13;1.52;;;;;;;7.48;66.92;100558.28;4862444;29;20137;-76
2021/10/28 19:56:09;;;;;;;0.88;0.88;;;;;;;7.50;66.62;100560.81;4858873;29;20098;-77
2021/10/28 19:58:37;;;;;;;0.47;0.47;;;;;;;7.50;66.81;100566.00;4863929;29;20099;-75
2021/10/28 20:06:50;;;;;;;0.57;0.57;;;;;;;7.48;67.12;100583.41;4858752;29;20056;-77
2021/10/28 20:20:21;;;;;;;1.00;1.00;;;;;;;7.44;67.21;100561.88;4857014;29;20057;-74
2021/10/28 20:22:48;;;;;;;0.88;0.88;;;;;;;7.48;67.44;100573.88;4856129;29;20057;-76
2021/10/28 20:25:17;;;;;;;0.82;0.82;;;;;;;7.51;67.32;100571.19;4868924;29;20057;-76
2021/10/28 20:27:46;;;;;;;0.52;0.52;;;;;;;7.45;68.10;100578.31;4856660;29;20152;-75
2021/10/28 20:30:14;;;;;;;0.45;0.45;;;;;;;7.43;67.75;100588.72;4857523;29;20058;-77
2021/10/28 20:32:40;;;;;;;0.50;0.50;;;;;;;7.41;68.13;100595.72;4855289;29;20535;-75
2021/10/28 20:37:36;;;;;;;0.80;0.80;;;;;;;7.37;68.54;100588.91;4857795;29;20113;-75
2021/10/28 20:40:04;;;;;;;1.33;1.27;;;;;;;7.39;68.75;100584.56;4841207;29;20101;-75
2021/10/28 20:42:36;;;;;;;1.05;1.05;;;;;;;7.38;68.59;100587.19;4857620;29;20049;-75
2021/10/28 20:45:12;;;;;;;1.30;1.20;;;;;;;7.43;67.85;100595.69;4855810;29;20078;-76
2021/10/28 20:47:40;;;;;;;11.18;2.38;;;;;;;7.40;67.94;100595.75;4857856;29;20121;-75
2021/10/28 20:50:09;;;;;;;2.00;1.20;;;;;;;7.43;68.32;100598.31;4850179;29;20053;-77
2021/10/28 20:52:35;;;;;;;0.88;0.88;;;;;;;7.47;68.07;100610.28;4857331;29;20087;-77
2021/10/28 20:55:01;;;;;;;0.77;0.77;;;;;;;7.53;67.81;100618.72;4861432;29;20646;-76
2021/10/28 20:57:28;;;;;;;2.47;2.05;;;;;;;7.54;68.35;100622.19;4859238;29;20059;-76
2021/10/28 20:59:54;;;;;;;0.90;0.90;;;;;;;7.55;68.45;100621.31;4857678;29;20050;-76
2021/10/28 21:02:20;;;;;;;1.05;1.05;;;;;;;7.53;68.49;100618.72;4857978;29;20087;-79
2021/10/28 21:04:46;;;;;;;1.05;1.05;;;;;;;7.51;68.63;100617.09;4856015;29;20049;-79